Time;durP1;ratioP1;P1;durP2;ratioP2;P2;SDS_P1;SDS_P2;PMS_P1;PMS_P2;Temp;Humidity;BMP_temperature;BMP_pressure;BME280_temperature;BME280_humidity;BME280_pressure;Samples;Min_cycle;Max_cycle;Signal;HPM_P1;HPM_P2
2024/01/11 00:00:16;;;;;;;53.17;26.35;;;-2.90;99.90;;;;;;5053620;28;20036;-73
2024/01/11 00:02:42;;;;;;;54.22;27.45;;;-2.90;99.90;;;;;;5069495;28;20056;-74
2024/01/11 00:05:08;;;;;;;55.65;27.88;;;-2.90;99.90;;;;;;5062918;28;20040;-75
2024/01/11 00:07:34;;;;;;;56.13;27.10;;;-2.90;99.90;;;;;;5030433;28;20033;-74
2024/01/11 00:10:02;;;;;;;49.67;26.55;;;-2.90;99.90;;;;;;5044957;28;20444;-75
2024/01/11 00:12:27;;;;;;;54.42;27.45;;;-2.90;99.90;;;;;;5044591;28;20025;-75
2024/01/11 00:14:53;;;;;;;51.67;27.25;;;-2.90;99.90;;;;;;5044614;28;20097;-74
2024/01/11 00:17:18;;;;;;;52.15;27.00;;;-2.90;99.90;;;;;;5044204;28;20033;-76
2024/01/11 00:19:44;;;;;;;55.53;27.40;;;-3.00;99.90;;;;;;5046117;28;20327;-75
2024/01/11 00:22:10;;;;;;;50.28;26.45;;;-3.00;99.90;;;;;;5046827;28;20033;-74
2024/01/11 00:24:36;;;;;;;50.00;28.02;;;-3.10;99.90;;;;;;5030171;28;20033;-74
2024/01/11 00:27:01;;;;;;;58.50;27.10;;;-3.20;99.90;;;;;;5044744;28;20026;-73
2024/01/11 00:29:28;;;;;;;56.95;28.38;;;-3.10;99.90;;;;;;5031183;28;20327;-74
2024/01/11 00:31:54;;;;;;;58.03;29.27;;;-3.20;99.90;;;;;;5064544;28;20091;-72
2024/01/11 00:34:21;;;;;;;55.23;28.07;;;-3.20;99.90;;;;;;5046468;28;20204;-74
2024/01/11 00:36:47;;;;;;;53.55;27.98;;;-3.20;99.90;;;;;;5044386;28;20312;-75
2024/01/11 00:39:13;;;;;;;55.85;28.23;;;-3.20;99.90;;;;;;5044405;28;20219;-74
2024/01/11 00:41:38;;;;;;;52.17;26.38;;;-3.20;99.90;;;;;;5041129;28;20025;-75
2024/01/11 00:44:04;;;;;;;53.28;28.35;;;-3.30;99.90;;;;;;5064033;28;20025;-74
2024/01/11 00:46:30;;;;;;;58.00;29.45;;;-3.20;99.90;;;;;;5064012;28;20359;-74
2024/01/11 00:48:57;;;;;;;54.92;28.77;;;-3.10;99.90;;;;;;5063090;28;20040;-74
2024/01/11 00:51:25;;;;;;;54.78;27.55;;;-3.10;99.90;;;;;;5062647;28;20036;-76
2024/01/11 00:53:51;;;;;;;51.60;28.25;;;-3.20;99.90;;;;;;5064075;28;20076;-74
2024/01/11 00:56:18;;;;;;;53.28;28.30;;;-3.30;99.90;;;;;;5063793;28;20227;-73
2024/01/11 00:58:44;;;;;;;56.60;28.17;;;-3.20;99.90;;;;;;5049895;28;20022;-73
2024/01/11 01:01:13;;;;;;;59.33;29.08;;;-3.30;99.90;;;;;;5025946;28;20040;-74
2024/01/11 01:03:42;;;;;;;62.63;30.08;;;-3.20;99.90;;;;;;5025723;28;20334;-76
2024/01/11 01:06:08;;;;;;;57.97;29.02;;;-3.30;99.90;;;;;;5026497;28;20022;-74
2024/01/11 01:08:36;;;;;;;55.13;28.20;;;-3.30;99.90;;;;;;5025498;28;20342;-76
2024/01/11 01:11:02;;;;;;;60.90;29.33;;;-3.30;99.90;;;;;;5043732;28;20036;-76
2024/01/11 01:13:28;;;;;;;55.45;29.05;;;-3.30;99.90;;;;;;5026181;28;20104;-76
2024/01/11 01:15:54;;;;;;;62.35;30.25;;;-3.40;99.90;;;;;;5051722;28;20044;-75
2024/01/11 01:18:20;;;;;;;58.00;30.92;;;-3.50;99.90;;;;;;5063111;28;20043;-75
2024/01/11 01:20:45;;;;;;;57.33;30.20;;;-3.50;99.90;;;;;;5063404;28;20047;-74
2024/01/11 01:23:11;;;;;;;59.30;29.48;;;-3.60;99.90;;;;;;5063291;28;20056;-76
2024/01/11 01:25:37;;;;;;;60.75;30.70;;;-3.60;99.90;;;;;;5063032;28;20156;-75
2024/01/11 01:28:03;;;;;;;58.38;29.70;;;-3.60;99.90;;;;;;5062079;28;20269;-77
2024/01/11 01:30:29;;;;;;;61.00;30.33;;;-3.60;99.90;;;;;;5048103;28;20030;-75
2024/01/11 01:32:54;;;;;;;57.85;30.35;;;-3.60;99.90;;;;;;5046621;28;20028;-75
2024/01/11 01:35:20;;;;;;;58.58;30.10;;;-3.40;99.90;;;;;;5042961;28;20040;-74
2024/01/11 01:37:46;;;;;;;59.22;30.92;;;-3.40;99.90;;;;;;5043616;28;20033;-74
2024/01/11 01:40:12;;;;;;;59.53;29.80;;;-3.40;99.90;;;;;;5043238;28;20030;-76
2024/01/11 01:42:45;;;;;;;57.40;29.88;;;-3.40;99.90;;;;;;5042759;28;20045;-74
2024/01/11 01:45:12;;;;;;;55.17;29.05;;;-3.40;99.90;;;;;;5042936;28;20025;-75
2024/01/11 01:47:42;;;;;;;59.00;29.00;;;-3.40;99.90;;;;;;5041517;28;20064;-75
2024/01/11 01:50:09;;;;;;;54.05;29.08;;;-3.40;99.90;;;;;;5054588;28;20048;-74
2024/01/11 01:52:36;;;;;;;63.75;31.90;;;-3.40;99.90;;;;;;5028045;28;20215;-74
2024/01/11 01:55:04;;;;;;;59.35;29.45;;;-3.50;99.90;;;;;;5062955;28;20036;-74
2024/01/11 01:57:32;;;;;;;55.60;27.35;;;-3.50;99.90;;;;;;5062476;28;20025;-75
2024/01/11 01:59:59;;;;;;;60.97;29.13;;;-3.50;99.90;;;;;;5062666;28;20025;-74
2024/01/11 02:02:25;;;;;;;54.88;27.73;;;-3.50;99.90;;;;;;5044905;28;20040;-76
2024/01/11 02:04:51;;;;;;;60.47;30.45;;;-3.60;99.90;;;;;;5044696;28;20041;-75
2024/01/11 02:07:18;;;;;;;62.85;29.67;;;-3.60;99.90;;;;;;5057156;28;20013;-76
2024/01/11 02:09:44;;;;;;;55.57;28.50;;;-3.60;99.90;;;;;;5044347;28;20033;-74
2024/01/11 02:12:10;;;;;;;57.90;28.58;;;-3.60;99.90;;;;;;5061853;28;20091;-74
2024/01/11 02:14:40;;;;;;;56.95;28.48;;;-3.60;99.90;;;;;;5062072;28;20296;-76
2024/01/11 02:17:06;;;;;;;55.25;28.20;;;-3.60;99.90;;;;;;5062339;28;20017;-75
2024/01/11 02:19:33;;;;;;;61.05;29.45;;;-3.70;99.90;;;;;;5044379;28;20033;-77
2024/01/11 02:22:15;;;;;;;59.92;29.65;;;-3.80;99.90;;;;;;5062419;28;20028;-76
2024/01/11 02:24:40;;;;;;;56.03;29.00;;;-3.80;99.90;;;;;;5056154;28;20048;-76
2024/01/11 02:27:06;;;;;;;60.95;30.40;;;-3.80;99.90;;;;;;5062520;28;20028;-76
2024/01/11 02:29:32;;;;;;;64.65;28.70;;;-3.80;99.90;;;;;;5056725;28;20296;-76
2024/01/11 02:31:59;;;;;;;61.75;30.70;;;-3.70;99.90;;;;;;5025085;28;20029;-75
2024/01/11 02:34:27;;;;;;;61.67;30.48;;;-3.70;99.90;;;;;;5024221;28;20033;-75
2024/01/11 02:36:53;;;;;;;60.95;30.92;;;-3.70;99.90;;;;;;5024950;28;20151;-75
2024/01/11 02:39:19;;;;;;;60.33;29.48;;;-3.70;99.90;;;;;;5042147;28;20029;-75
2024/01/11 02:41:47;;;;;;;54.90;28.02;;;-3.80;99.90;;;;;;5045400;28;20231;-74
2024/01/11 02:44:13;;;;;;;58.63;28.27;;;-3.70;99.90;;;;;;5042027;28;20025;-75
2024/01/11 02:46:38;;;;;;;60.15;29.60;;;-3.80;99.90;;;;;;5040566;28;20323;-74
2024/01/11 02:49:04;;;;;;;53.75;28.63;;;-3.70;99.90;;;;;;5041445;28;20046;-76
2024/01/11 02:51:30;;;;;;;55.65;28.52;;;-3.70;99.90;;;;;;5023945;28;20076;-77
2024/01/11 02:53:55;;;;;;;53.33;28.23;;;-3.70;99.90;;;;;;5045506;28;20148;-75
2024/01/11 02:56:21;;;;;;;56.22;27.90;;;-3.70;99.90;;;;;;5042227;28;20116;-73
2024/01/11 02:58:46;;;;;;;59.55;29.00;;;-3.70;99.90;;;;;;5041488;28;20048;-75
2024/01/11 03:01:13;;;;;;;56.88;28.45;;;-3.80;99.90;;;;;;5041899;28;20025;-75
2024/01/11 03:03:38;;;;;;;58.35;28.65;;;-3.80;99.90;;;;;;5041500;28;20036;-76
2024/01/11 03:06:04;;;;;;;56.63;28.67;;;-3.90;99.90;;;;;;5042023;28;20040;-75
2024/01/11 03:08:30;;;;;;;53.05;27.30;;;-4.00;99.90;;;;;;5041291;28;20327;-77
2024/01/11 03:10:55;;;;;;;60.95;29.80;;;-4.00;99.90;;;;;;5048766;28;20088;-76
2024/01/11 03:13:22;;;;;;;53.25;27.70;;;-4.00;99.90;;;;;;5062407;28;20021;-77
2024/01/11 03:15:48;;;;;;;54.23;27.67;;;-3.90;99.90;;;;;;5061065;28;20032;-76
2024/01/11 03:18:14;;;;;;;60.40;28.80;;;-3.90;99.90;;;;;;5043950;28;20048;-77
2024/01/11 03:20:40;;;;;;;51.05;26.83;;;-3.90;99.90;;;;;;5061281;28;20295;-75
2024/01/11 03:23:05;;;;;;;56.72;28.30;;;-3.90;99.90;;;;;;5063645;28;20044;-75
2024/01/11 03:25:31;;;;;;;57.60;28.73;;;-3.80;99.90;;;;;;5064385;28;20325;-76
2024/01/11 03:27:58;;;;;;;56.53;28.73;;;-3.80;99.90;;;;;;5048125;28;20350;-77
2024/01/11 03:30:24;;;;;;;48.00;23.27;;;-3.80;99.90;;;;;;5028051;28;20160;-78
2024/01/11 03:32:50;;;;;;;56.00;29.17;;;-3.90;99.90;;;;;;5045793;28;20312;-74
2024/01/11 03:35:19;;;;;;;53.83;27.63;;;-3.90;99.90;;;;;;5045590;28;20076;-77
2024/01/11 03:37:45;;;;;;;56.45;28.67;;;-3.90;99.90;;;;;;5043796;28;20033;-74
2024/01/11 03:40:11;;;;;;;56.60;28.67;;;-3.90;99.90;;;;;;5044608;28;20037;-76
2024/01/11 03:42:37;;;;;;;57.08;28.67;;;-3.90;99.90;;;;;;5033352;28;20028;-75
2024/01/11 03:45:04;;;;;;;58.97;27.95;;;-4.00;99.90;;;;;;5028770;28;20228;-75
2024/01/11 03:47:32;;;;;;;56.28;28.25;;;-4.00;99.90;;;;;;5045139;28;20049;-76
2024/01/11 03:49:58;;;;;;;56.38;27.65;;;-4.10;99.90;;;;;;5044453;28;20049;-77
2024/01/11 03:52:23;;;;;;;57.63;29.20;;;-4.10;99.90;;;;;;5045728;28;20033;-75
2024/01/11 03:54:49;;;;;;;60.05;29.40;;;-4.10;99.90;;;;;;5027361;28;20100;-74
2024/01/11 03:57:16;;;;;;;62.03;29.00;;;-4.10;99.90;;;;;;5044265;28;20048;-75
2024/01/11 03:59:42;;;;;;;52.40;27.58;;;-4.10;99.90;;;;;;5046052;28;20032;-76
2024/01/11 04:02:07;;;;;;;59.97;29.00;;;-4.00;99.90;;;;;;5045471;28;20331;-76
2024/01/11 04:04:36;;;;;;;59.95;29.58;;;-4.00;99.90;;;;;;5064510;28;20188;-74
2024/01/11 04:07:02;;;;;;;56.50;29.17;;;-4.00;99.90;;;;;;5064772;28;20020;-75
2024/01/11 04:09:27;;;;;;;61.08;29.83;;;-4.10;99.90;;;;;;5046877;28;20170;-75
2024/01/11 04:12:03;;;;;;;64.78;29.58;;;-4.10;99.90;;;;;;5065145;28;20021;-74
2024/01/11 04:14:29;;;;;;;60.17;28.98;;;-4.10;99.90;;;;;;5064595;28;20036;-74
2024/01/11 04:16:54;;;;;;;52.97;27.80;;;-4.10;99.90;;;;;;5033594;28;20033;-75
2024/01/11 04:19:20;;;;;;;56.20;29.08;;;-4.10;99.90;;;;;;5063524;28;20025;-74
2024/01/11 04:21:46;;;;;;;58.85;29.13;;;-4.10;99.90;;;;;;5064272;28;20033;-77
2024/01/11 04:24:11;;;;;;;64.60;31.92;;;-4.20;99.90;;;;;;5064830;28;20355;-75
2024/01/11 04:26:37;;;;;;;57.47;28.65;;;-4.30;99.90;;;;;;5064359;28;20070;-73
2024/01/11 04:29:03;;;;;;;56.10;28.95;;;-4.30;99.90;;;;;;5061860;28;20227;-74
2024/01/11 04:31:28;;;;;;;60.17;30.13;;;-4.30;99.90;;;;;;5043121;28;20041;-75
2024/01/11 04:33:54;;;;;;;57.13;28.65;;;-4.20;99.90;;;;;;5046338;28;20044;-74
2024/01/11 04:36:20;;;;;;;57.70;29.98;;;-4.20;99.90;;;;;;5064203;28;20044;-74
2024/01/11 04:38:45;;;;;;;60.15;30.27;;;-4.20;99.90;;;;;;5063610;28;20100;-73
2024/01/11 04:41:12;;;;;;;52.53;29.08;;;-4.20;99.90;;;;;;5046737;28;20028;-74
2024/01/11 04:43:42;;;;;;;60.80;29.80;;;-4.30;99.90;;;;;;5063613;28;20308;-75
2024/01/11 04:46:18;;;;;;;60.30;30.20;;;-4.30;99.90;;;;;;5064419;28;20033;-74
2024/01/11 04:48:44;;;;;;;61.38;30.48;;;-4.30;99.90;;;;;;5063442;28;20045;-75
2024/01/11 04:51:10;;;;;;;60.50;29.83;;;-4.40;99.90;;;;;;5052455;28;20043;-74
2024/01/11 04:53:40;;;;;;;59.20;29.55;;;-4.40;99.90;;;;;;5043531;28;20100;-74
2024/01/11 04:56:10;;;;;;;61.60;29.65;;;-4.40;99.90;;;;;;5026211;28;20046;-75
2024/01/11 04:58:39;;;;;;;57.53;29.63;;;-4.40;99.90;;;;;;5043438;28;20101;-75
2024/01/11 05:01:05;;;;;;;61.88;31.40;;;-4.40;99.90;;;;;;5044215;28;20029;-74
2024/01/11 05:03:31;;;;;;;67.22;31.85;;;-4.40;99.90;;;;;;5025840;28;20205;-75
2024/01/11 05:05:58;;;;;;;59.22;29.67;;;-4.50;99.90;;;;;;5044157;28;20040;-73
2024/01/11 05:08:26;;;;;;;54.47;28.63;;;-4.60;99.90;;;;;;5047407;28;20027;-76
2024/01/11 05:10:51;;;;;;;46.95;22.77;;;-4.60;99.90;;;;;;5043381;28;20048;-77
2024/01/11 05:13:18;;;;;;;60.65;29.13;;;-4.60;99.90;;;;;;5044001;28;20033;-76
2024/01/11 05:15:44;;;;;;;60.83;29.75;;;-4.60;99.90;;;;;;5043418;28;20045;-76
2024/01/11 05:18:13;;;;;;;62.38;31.25;;;-4.60;99.90;;;;;;5043882;28;20236;-74
2024/01/11 05:20:39;;;;;;;64.10;30.27;;;-4.70;99.90;;;;;;5043021;28;20201;-74
2024/01/11 05:23:05;;;;;;;64.90;31.27;;;-4.70;99.90;;;;;;5025910;28;20069;-75
2024/01/11 05:25:33;;;;;;;58.28;30.60;;;-4.70;99.90;;;;;;5046647;28;20343;-76
2024/01/11 05:28:02;;;;;;;;;;;-4.70;99.90;;;;;;5043947;28;20038;-73
2024/01/11 05:30:28;;;;;;;62.20;30.88;;;-4.80;99.90;;;;;;5056085;28;19901;-75
2024/01/11 05:32:54;;;;;;;65.53;30.50;;;-4.80;99.90;;;;;;5063437;28;20032;-76
2024/01/11 05:35:20;;;;;;;65.03;32.40;;;-4.70;99.90;;;;;;5063547;28;20056;-74
2024/01/11 05:37:46;;;;;;;61.95;31.02;;;-4.70;99.90;;;;;;5063334;28;20048;-75
2024/01/11 05:40:12;;;;;;;61.95;30.05;;;-4.70;99.90;;;;;;5063742;28;20013;-77
2024/01/11 05:42:38;;;;;;;61.83;30.15;;;-4.70;99.90;;;;;;5037892;28;20088;-75
2024/01/11 05:45:05;;;;;;;58.05;29.90;;;-4.70;99.90;;;;;;5043173;28;20022;-75
2024/01/11 05:47:31;;;;;;;62.58;30.40;;;-4.80;99.90;;;;;;5042887;28;20060;-74
2024/01/11 05:49:57;;;;;;;62.67;30.85;;;-4.80;99.90;;;;;;5043236;28;20057;-72
2024/01/11 05:52:22;;;;;;;55.38;28.92;;;-4.70;99.90;;;;;;5043383;28;20085;-73
2024/01/11 05:54:48;;;;;;;62.40;29.30;;;-4.80;99.90;;;;;;5013382;28;20103;-73
2024/01/11 05:57:14;;;;;;;60.00;30.58;;;-4.80;99.90;;;;;;5031025;28;20036;-73
2024/01/11 05:59:46;;;;;;;60.10;29.73;;;-4.80;99.90;;;;;;5033288;28;20374;-71
2024/01/11 06:02:13;;;;;;;60.50;29.83;;;-4.80;99.90;;;;;;5008596;28;20374;-73
2024/01/11 06:04:42;;;;;;;47.85;23.42;;;-4.70;99.90;;;;;;5024682;28;20029;-73
2024/01/11 06:07:07;;;;;;;61.35;30.15;;;-4.70;99.90;;;;;;5042949;28;20017;-75
2024/01/11 06:09:33;;;;;;;64.40;32.15;;;-4.70;99.90;;;;;;5042314;28;20032;-74
2024/01/11 06:12:01;;;;;;;64.70;31.80;;;-4.70;99.90;;;;;;5041634;28;20037;-72
2024/01/11 06:14:30;;;;;;;65.43;31.95;;;-4.80;99.90;;;;;;5042610;28;20028;-75
2024/01/11 06:16:58;;;;;;;69.72;32.35;;;-4.90;99.90;;;;;;5025102;28;20048;-74
2024/01/11 06:19:24;;;;;;;61.10;30.40;;;-4.90;99.90;;;;;;5044880;28;20164;-75
2024/01/11 06:21:53;;;;;;;62.97;31.05;;;-4.90;99.90;;;;;;5042387;28;20314;-74
2024/01/11 06:24:21;;;;;;;59.33;29.80;;;-4.80;99.90;;;;;;5042370;28;20035;-72
2024/01/11 06:26:47;;;;;;;65.43;32.70;;;-4.80;99.90;;;;;;5040840;28;20052;-73
2024/01/11 06:29:13;;;;;;;66.25;31.90;;;-4.70;99.90;;;;;;5044106;28;20474;-73
2024/01/11 06:31:41;;;;;;;66.10;31.88;;;-4.60;99.90;;;;;;5044160;28;20093;-73
2024/01/11 06:34:07;;;;;;;64.07;30.77;;;-4.60;99.90;;;;;;5062716;28;20035;-73
2024/01/11 06:36:32;;;;;;;63.85;32.35;;;-4.70;99.90;;;;;;5045182;28;20037;-75
2024/01/11 06:38:58;;;;;;;60.00;30.20;;;-4.80;99.90;;;;;;5042192;28;20212;-75
2024/01/11 06:41:27;;;;;;;65.68;30.10;;;-4.90;99.90;;;;;;5042514;28;20018;-74
2024/01/11 06:43:53;;;;;;;60.22;30.05;;;-5.00;99.90;;;;;;5042141;28;20029;-72
2024/01/11 06:46:22;;;;;;;58.28;28.90;;;-5.00;99.90;;;;;;5024280;28;20025;-73
2024/01/11 06:48:49;;;;;;;58.30;28.75;;;-4.90;99.90;;;;;;5041280;28;20342;-75
2024/01/11 06:51:21;;;;;;;63.15;30.30;;;-4.90;99.90;;;;;;5056694;28;20033;-72
2024/01/11 06:54:02;;;;;;;55.50;29.63;;;-4.90;99.90;;;;;;5054449;28;20457;-74
2024/01/11 06:56:28;;;;;;;55.35;29.80;;;-4.80;99.90;;;;;;5061795;28;20192;-75
2024/01/11 06:59:21;;;;;;;61.30;29.63;;;-4.80;99.90;;;;;;5062286;28;20021;-74
2024/01/11 07:01:47;;;;;;;61.25;30.85;;;-4.80;99.90;;;;;;5050994;28;20052;-72
2024/01/11 07:04:12;;;;;;;65.47;31.75;;;-4.80;99.90;;;;;;5059078;28;20049;-72
2024/01/11 07:06:41;;;;;;;59.28;31.75;;;-4.80;99.90;;;;;;5049356;28;20346;-75
2024/01/11 07:09:25;;;;;;;62.45;30.13;;;-4.90;99.90;;;;;;5063410;28;20084;-74
2024/01/11 07:11:53;;;;;;;65.90;30.83;;;-4.80;99.90;;;;;;5061676;28;20037;-73
2024/01/11 07:14:19;;;;;;;61.60;30.48;;;-4.80;99.90;;;;;;5061703;28;20081;-74
2024/01/11 07:16:45;;;;;;;64.63;31.83;;;-4.80;99.90;;;;;;5061137;28;20021;-72
2024/01/11 07:19:20;;;;;;;64.65;32.05;;;-4.80;99.90;;;;;;5044489;28;20071;-74
2024/01/11 07:21:46;;;;;;;61.72;31.05;;;-4.80;99.90;;;;;;5056060;28;20271;-75
2024/01/11 07:27:08;;;;;;;61.78;29.67;;;-5.00;99.90;;;;;;5041969;28;20056;-73
2024/01/11 07:29:40;;;;;;;64.43;31.45;;;-5.00;99.90;;;;;;5046782;28;20028;-74
2024/01/11 07:32:08;;;;;;;62.90;31.08;;;-4.90;99.90;;;;;;5061594;28;20184;-73
2024/01/11 07:34:49;;;;;;;62.85;31.00;;;-4.80;99.90;;;;;;5061068;28;20211;-74
2024/01/11 07:37:15;;;;;;;63.80;31.25;;;-4.70;99.90;;;;;;5060111;28;20033;-75
2024/01/11 07:39:49;;;;;;;64.15;32.30;;;-4.70;99.90;;;;;;5056973;28;20092;-76
2024/01/11 07:45:11;;;;;;;67.25;33.40;;;-4.70;99.90;;;;;;4968933;28;20081;-73
2024/01/11 07:47:40;;;;;;;65.18;32.17;;;-4.70;99.90;;;;;;5050607;28;20029;-73
2024/01/11 07:50:06;;;;;;;65.18;31.30;;;-4.70;99.90;;;;;;5061338;28;20060;-73
2024/01/11 07:52:36;;;;;;;65.55;31.20;;;-4.60;99.90;;;;;;5061271;28;20037;-77
2024/01/11 07:55:12;;;;;;;59.15;30.05;;;-4.50;99.90;;;;;;5058969;28;20076;-72
2024/01/11 07:57:41;;;;;;;62.22;30.70;;;-4.50;99.90;;;;;;5055507;28;20018;-75
2024/01/11 08:00:13;;;;;;;62.47;30.85;;;-4.40;99.90;;;;;;5039855;28;20021;-76
2024/01/11 08:02:42;;;;;;;61.55;31.27;;;-4.30;99.90;;;;;;5040276;28;20037;-76
2024/01/11 08:05:11;;;;;;;65.60;30.88;;;-4.30;99.90;;;;;;5041320;28;20041;-74
2024/01/11 08:07:39;;;;;;;61.65;30.27;;;-4.30;99.90;;;;;;5040725;28;20037;-73
2024/01/11 08:10:09;;;;;;;61.78;30.20;;;-4.30;99.90;;;;;;5042985;28;20046;-75
2024/01/11 08:12:44;;;;;;;61.33;30.13;;;-4.40;99.90;;;;;;5047323;28;20043;-75
2024/01/11 08:15:16;;;;;;;58.45;29.70;;;-4.30;99.90;;;;;;5064662;28;20033;-75
2024/01/11 08:18:08;;;;;;;61.13;30.42;;;-4.20;99.90;;;;;;5048895;28;20115;-76
2024/01/11 08:20:38;;;;;;;60.58;29.65;;;-4.10;99.90;;;;;;5064342;28;20022;-76
2024/01/11 08:23:16;;;;;;;61.65;30.42;;;-4.10;99.90;;;;;;5046926;28;20316;-76
2024/01/11 08:25:47;;;;;;;58.95;29.35;;;-4.00;99.90;;;;;;5064644;28;20048;-75
2024/01/11 08:28:16;;;;;;;58.67;31.10;;;-3.90;99.90;;;;;;5043759;28;20029;-74
2024/01/11 08:30:44;;;;;;;60.75;29.80;;;-3.80;99.90;;;;;;5061063;28;20028;-74
2024/01/11 08:33:36;;;;;;;57.88;28.80;;;-3.80;99.90;;;;;;5031240;28;20029;-75
2024/01/11 08:36:14;;;;;;;54.17;29.27;;;-3.70;99.90;;;;;;5030756;28;20060;-76
2024/01/11 08:38:40;;;;;;;58.33;29.00;;;-3.70;99.90;;;;;;5030179;28;20025;-74
2024/01/11 08:41:06;;;;;;;60.97;28.75;;;-3.60;99.90;;;;;;5030278;28;20036;-74
2024/01/11 08:43:41;;;;;;;57.75;28.55;;;-3.50;99.90;;;;;;5046477;28;20092;-74
2024/01/11 08:46:23;;;;;;;58.63;29.33;;;-3.40;99.90;;;;;;5020371;28;20030;-74
2024/01/11 08:48:56;;;;;;;57.67;28.67;;;-3.30;99.90;;;;;;5016257;28;20046;-74
2024/01/11 08:51:28;;;;;;;62.97;30.65;;;-3.20;99.90;;;;;;5013349;28;20046;-75
2024/01/11 08:53:53;;;;;;;57.13;29.10;;;-3.10;99.90;;;;;;5022020;28;20041;-74
2024/01/11 08:56:19;;;;;;;56.05;29.40;;;-3.00;99.90;;;;;;5022553;28;20332;-74
2024/01/11 08:58:54;;;;;;;59.28;30.23;;;-3.00;99.90;;;;;;5014911;28;20259;-75
2024/01/11 09:01:44;;;;;;;56.58;27.60;;;-2.90;99.90;;;;;;5022620;28;20026;-75
2024/01/11 09:04:19;;;;;;;52.78;27.45;;;-3.00;99.90;;;;;;5022479;28;20062;-75
2024/01/11 09:06:56;;;;;;;56.70;29.75;;;-2.90;99.90;;;;;;5021571;28;20065;-73
2024/01/11 09:09:26;;;;;;;51.67;26.90;;;-2.90;99.90;;;;;;5005347;28;20080;-75
2024/01/11 09:12:24;;;;;;;59.45;29.73;;;-2.80;99.90;;;;;;4991039;28;20197;-74
2024/01/11 09:15:11;;;;;;;58.80;29.30;;;-2.80;99.90;;;;;;4996717;28;20101;-75
2024/01/11 09:17:46;;;;;;;60.40;29.83;;;-2.70;99.90;;;;;;5022143;28;20034;-75
2024/01/11 09:20:16;;;;;;;54.05;27.65;;;-2.50;99.90;;;;;;5021839;28;20057;-76
2024/01/11 09:22:45;;;;;;;57.67;28.33;;;-2.50;99.90;;;;;;5024074;28;20049;-75
2024/01/11 09:25:35;;;;;;;59.88;28.90;;;-2.50;99.90;;;;;;5040766;28;20040;-75
2024/01/11 09:28:16;;;;;;;52.42;27.60;;;-2.60;99.90;;;;;;5025198;28;20069;-74
2024/01/11 09:31:21;;;;;;;63.22;31.00;;;-2.40;99.90;;;;;;5028906;28;20035;-76
2024/01/11 09:33:57;;;;;;;54.00;28.17;;;-2.30;99.90;;;;;;5041280;28;20086;-74
2024/01/11 09:36:26;;;;;;;54.40;28.38;;;-2.20;99.90;;;;;;5043267;28;20148;-74
2024/01/11 09:38:52;;;;;;;57.30;29.17;;;-2.20;99.90;;;;;;5042892;28;20029;-75
2024/01/11 09:41:23;;;;;;;59.95;29.13;;;-2.20;99.90;;;;;;5043562;28;20271;-74
2024/01/11 09:44:12;;;;;;;60.00;30.35;;;-2.10;99.90;;;;;;5013387;28;20013;-75
2024/01/11 09:46:38;;;;;;;59.53;28.77;;;-2.20;99.90;;;;;;5042685;28;20057;-75
2024/01/11 09:49:46;;;;;;;55.22;29.02;;;-2.10;99.90;;;;;;5041844;28;20060;-74
2024/01/11 09:52:25;;;;;;;54.40;29.52;;;-2.10;99.90;;;;;;5042990;28;20129;-74
2024/01/11 09:55:06;;;;;;;58.83;30.92;;;-2.00;99.90;;;;;;5025240;28;20117;-74
2024/01/11 09:57:50;;;;;;;58.20;29.30;;;-2.00;99.90;;;;;;5021187;28;20046;-74
2024/01/11 10:00:32;;;;;;;53.45;29.42;;;-2.10;99.90;;;;;;5025262;28;20032;-75
2024/01/11 10:03:09;;;;;;;52.00;27.92;;;-2.10;99.90;;;;;;5059925;28;20219;-75
2024/01/11 10:05:45;;;;;;;55.28;28.88;;;-2.00;99.90;;;;;;5044854;28;20051;-75
2024/01/11 10:08:26;;;;;;;50.03;27.63;;;-1.90;99.90;;;;;;5062639;28;20032;-75
2024/01/11 10:11:04;;;;;;;53.42;26.33;;;-1.90;99.90;;;;;;5062346;28;20037;-74
2024/01/11 10:13:40;;;;;;;56.80;28.00;;;-1.80;99.90;;;;;;5062293;28;20056;-75
2024/01/11 10:16:15;;;;;;;52.08;27.10;;;-1.70;99.90;;;;;;5040708;28;20049;-76
2024/01/11 10:18:45;;;;;;;61.75;27.70;;;-1.60;99.90;;;;;;5037738;28;20051;-74
2024/01/11 10:21:16;;;;;;;55.67;27.30;;;-1.40;99.90;;;;;;5042456;28;20029;-74
2024/01/11 10:24:04;;;;;;;52.85;26.00;;;-1.40;99.90;;;;;;5041794;28;20152;-75
2024/01/11 10:27:05;;;;;;;56.08;28.38;;;-1.30;99.90;;;;;;5038216;28;20064;-73
2024/01/11 10:29:57;;;;;;;52.08;27.42;;;-1.20;99.90;;;;;;5047158;28;20084;-75
2024/01/11 10:36:18;;;;;;;54.08;25.83;;;-0.90;99.80;;;;;;4989517;28;20070;-73
2024/01/11 10:39:09;;;;;;;56.10;27.85;;;-0.70;98.90;;;;;;4972494;29;20035;-72
2024/01/11 10:42:12;;;;;;;50.00;26.10;;;-0.60;98.70;;;;;;4957836;29;20058;-73
2024/01/11 10:45:09;;;;;;;53.10;26.83;;;-0.40;98.30;;;;;;4955349;29;20055;-73
2024/01/11 10:51:41;;;;;;;49.65;26.15;;;-0.30;97.40;;;;;;4917056;29;20043;-74
2024/01/11 10:54:07;;;;;;;53.25;25.90;;;-0.10;96.70;;;;;;4964366;29;20222;-73
2024/01/11 10:56:40;;;;;;;48.60;25.88;;;0.10;96.80;;;;;;4976274;28;20039;-74
2024/01/11 10:59:25;;;;;;;47.28;26.58;;;0.30;96.20;;;;;;4962254;29;20031;-74
2024/01/11 11:02:06;;;;;;;48.25;25.88;;;0.40;95.90;;;;;;4965134;28;20034;-75
2024/01/11 11:04:34;;;;;;;49.40;26.52;;;0.60;95.80;;;;;;4948369;28;20082;-75
2024/01/11 11:07:02;;;;;;;50.67;27.15;;;0.90;95.20;;;;;;4948954;28;20157;-74
2024/01/11 11:09:29;;;;;;;45.30;25.80;;;1.30;94.40;;;;;;4981507;28;20329;-74
2024/01/11 11:11:58;;;;;;;44.85;26.30;;;1.60;93.40;;;;;;4995669;28;20072;-74
2024/01/11 11:14:25;;;;;;;46.38;26.88;;;1.90;93.00;;;;;;5062032;28;20354;-74
2024/01/11 11:16:52;;;;;;;47.47;25.85;;;2.10;92.10;;;;;;5026371;28;20052;-73
2024/01/11 11:19:20;;;;;;;43.65;25.52;;;2.30;91.80;;;;;;5061602;28;20032;-75
2024/01/11 11:21:48;;;;;;;48.10;27.52;;;2.80;91.20;;;;;;5043347;28;20029;-74
2024/01/11 11:24:19;;;;;;;42.45;25.35;;;3.40;89.50;;;;;;5039926;28;20067;-74
2024/01/11 11:26:45;;;;;;;42.65;26.05;;;3.50;88.80;;;;;;5060139;28;20096;-76
2024/01/11 11:29:11;;;;;;;41.08;24.88;;;3.90;87.80;;;;;;5059174;28;20044;-75
2024/01/11 11:32:10;;;;;;;41.58;24.75;;;4.30;85.50;;;;;;5040977;28;20128;-75
2024/01/11 11:34:52;;;;;;;40.88;25.08;;;4.60;84.20;;;;;;5023589;28;20033;-75
2024/01/11 11:37:29;;;;;;;43.13;25.77;;;5.20;82.00;;;;;;5041572;28;20049;-76
2024/01/11 11:40:06;;;;;;;38.80;25.05;;;5.60;80.60;;;;;;5045221;28;20057;-74
2024/01/11 11:42:42;;;;;;;40.30;25.50;;;5.80;79.90;;;;;;5023263;28;20033;-73
2024/01/11 11:45:27;;;;;;;40.13;24.17;;;5.90;77.80;;;;;;5043746;28;20323;-72
2024/01/11 11:47:53;;;;;;;40.05;24.63;;;6.20;78.30;;;;;;5045129;28;20045;-75
2024/01/11 11:50:22;;;;;;;38.67;25.58;;;6.50;76.70;;;;;;5045088;28;20069;-74
2024/01/11 11:52:55;;;;;;;36.17;24.55;;;6.90;75.00;;;;;;5026755;28;20338;-74
2024/01/11 11:55:28;;;;;;;36.75;24.52;;;7.00;75.00;;;;;;5047887;28;20052;-73
2024/01/11 11:57:54;;;;;;;36.83;24.10;;;7.30;73.40;;;;;;5051923;28;20084;-74
2024/01/11 12:00:23;;;;;;;35.75;23.75;;;7.80;73.60;;;;;;5065170;28;20017;-75
2024/01/11 12:02:51;;;;;;;37.85;24.83;;;8.20;72.30;;;;;;5064529;28;20025;-76
2024/01/11 12:05:18;;;;;;;36.73;23.73;;;8.50;70.00;;;;;;5064872;28;20088;-76
2024/01/11 12:07:45;;;;;;;39.03;26.50;;;8.30;69.50;;;;;;5064420;28;20092;-73
2024/01/11 12:10:10;;;;;;;36.58;24.60;;;8.10;69.60;;;;;;5064910;28;20044;-72
2024/01/11 12:12:39;;;;;;;37.53;23.58;;;8.30;69.90;;;;;;5063407;28;20328;-74
2024/01/11 12:15:05;;;;;;;35.05;24.90;;;8.90;68.80;;;;;;5048348;28;20032;-74
2024/01/11 12:17:31;;;;;;;35.28;24.02;;;9.10;67.50;;;;;;5042974;28;20316;-74
2024/01/11 12:19:57;;;;;;;35.95;25.20;;;9.30;67.10;;;;;;5045206;28;20048;-73
2024/01/11 12:22:24;;;;;;;36.58;25.15;;;9.50;66.10;;;;;;5045065;28;20013;-73
2024/01/11 12:25:00;;;;;;;35.20;24.30;;;9.80;65.90;;;;;;5026393;28;20053;-76
2024/01/11 12:27:26;;;;;;;37.00;25.52;;;9.70;65.50;;;;;;5049909;28;20033;-75
2024/01/11 12:29:52;;;;;;;34.33;23.90;;;10.10;65.00;;;;;;5048046;28;20030;-75
2024/01/11 12:32:18;;;;;;;36.10;25.48;;;10.10;65.30;;;;;;5050445;28;20037;-75
2024/01/11 12:34:45;;;;;;;36.50;24.73;;;10.50;64.00;;;;;;5043931;28;20029;-75
2024/01/11 12:37:10;;;;;;;37.08;24.45;;;10.70;63.90;;;;;;5062650;28;20044;-73
2024/01/11 12:39:39;;;;;;;41.22;26.08;;;10.80;64.60;;;;;;5063685;28;20029;-72
2024/01/11 12:42:05;;;;;;;;;;;10.70;63.70;;;;;;5065056;28;20032;-73
2024/01/11 12:44:32;;;;;;;37.00;24.55;;;11.00;63.10;;;;;;5054465;28;19905;-72
2024/01/11 12:46:58;;;;;;;42.58;25.42;;;10.90;62.20;;;;;;5044527;28;20033;-74
2024/01/11 12:49:24;;;;;;;37.75;25.50;;;10.40;62.90;;;;;;5052047;28;20148;-72
2024/01/11 12:51:50;;;;;;;41.78;26.02;;;10.00;63.30;;;;;;5063570;28;20092;-75
2024/01/11 12:54:19;;;;;;;37.92;24.58;;;9.20;65.00;;;;;;5045534;28;20024;-72